createdAt,value
2023-02-17T00:01:33.597Z,13.77
2023-02-17T00:04:19.110Z,13.40
2023-02-17T00:07:04.570Z,14.05
2023-02-17T00:09:49.947Z,13.00
2023-02-17T00:12:36.718Z,13.07
2023-02-17T00:15:22.653Z,12.93
2023-02-17T00:18:08.345Z,13.32
2023-02-17T00:20:53.871Z,14.48
2023-02-17T00:23:39.335Z,15.27
2023-02-17T00:26:25.234Z,15.45
2023-02-17T00:29:10.733Z,15.18
2023-02-17T00:31:56.664Z,19.00
2023-02-17T00:34:42.549Z,16.75
2023-02-17T00:37:28.685Z,16.65
2023-02-17T00:40:15.363Z,19.27
2023-02-17T00:43:00.875Z,18.55
2023-02-17T00:45:46.185Z,22.38
2023-02-17T00:48:33.046Z,20.05
2023-02-17T00:51:19.620Z,18.30
2023-02-17T00:54:05.898Z,17.40
2023-02-17T00:56:51.885Z,20.30
2023-02-17T00:59:37.637Z,20.58
2023-02-17T01:02:26.597Z,20.23
2023-02-17T01:05:14.216Z,16.23
2023-02-17T01:08:03.927Z,15.75
2023-02-17T01:10:51.945Z,14.98
2023-02-17T01:13:37.569Z,15.20
2023-02-17T01:16:39.589Z,15.65
2023-02-17T01:19:25.388Z,17.33
2023-02-17T01:22:12.506Z,17.90
2023-02-17T01:24:58.166Z,16.58
2023-02-17T01:27:47.288Z,16.35
2023-02-17T01:30:32.943Z,14.10
2023-02-17T01:33:18.599Z,15.48
2023-02-17T01:36:06.550Z,13.98
2023-02-17T01:38:52.429Z,14.38
2023-02-17T01:41:37.805Z,14.30
2023-02-17T01:44:25.509Z,14.45
2023-02-17T01:47:13.001Z,16.38
2023-02-17T01:49:58.860Z,14.98
2023-02-17T01:52:44.851Z,15.93
2023-02-17T01:55:33.145Z,15.73
2023-02-17T01:58:22.131Z,13.80
2023-02-17T02:01:08.325Z,13.60
2023-02-17T02:03:54.382Z,14.43
2023-02-17T02:06:43.789Z,13.70
2023-02-17T02:09:41.779Z,15.27
2023-02-17T02:12:30.584Z,15.48
2023-02-17T02:15:19.739Z,15.38
2023-02-17T02:18:23.760Z,14.30
2023-02-17T02:21:18.291Z,15.50
2023-02-17T02:24:22.651Z,16.58
2023-02-17T02:27:18.044Z,15.73
2023-02-17T02:30:21.868Z,16.08
2023-02-17T02:33:30.549Z,16.05
2023-02-17T02:36:37.220Z,15.25
2023-02-17T02:39:26.761Z,15.07
2023-02-17T02:42:16.639Z,14.65
2023-02-17T02:45:02.414Z,17.05
2023-02-17T02:47:53.740Z,15.68
2023-02-17T02:51:03.654Z,15.73
2023-02-17T02:53:55.175Z,15.18
2023-02-17T02:57:04.371Z,16.57
2023-02-17T03:00:30.866Z,16.88
2023-02-17T03:03:48.587Z,15.60
2023-02-17T03:06:40.278Z,15.70
2023-02-17T03:09:27.567Z,16.38
2023-02-17T03:12:12.943Z,15.25
2023-02-17T03:15:04.569Z,15.73
2023-02-17T03:17:50.058Z,16.13
2023-02-17T03:20:42.014Z,16.80
2023-02-17T03:23:27.584Z,17.40
2023-02-17T03:26:12.957Z,17.65
2023-02-17T03:28:58.242Z,15.43
2023-02-17T03:31:43.924Z,14.90
2023-02-17T03:34:29.227Z,16.77
2023-02-17T03:37:14.576Z,17.42
2023-02-17T03:39:59.991Z,16.67
2023-02-17T03:42:45.263Z,16.42
2023-02-17T03:45:30.677Z,16.15
2023-02-17T03:48:16.011Z,14.90
2023-02-17T03:51:20.648Z,15.52
2023-02-17T03:54:06.748Z,14.95
2023-02-17T03:56:52.050Z,15.88
2023-02-17T03:59:37.601Z,14.85
2023-02-17T04:02:23.221Z,15.55
2023-02-17T04:05:08.505Z,17.45
2023-02-17T04:07:54.063Z,16.42
2023-02-17T04:10:39.466Z,15.98
2023-02-17T04:13:25.781Z,14.43
2023-02-17T04:16:12.509Z,14.57
2023-02-17T04:18:57.748Z,15.60
2023-02-17T04:21:43.263Z,14.15
2023-02-17T04:24:28.605Z,15.55
2023-02-17T04:27:14.020Z,15.45
2023-02-17T04:29:59.484Z,14.43
2023-02-17T04:32:44.690Z,16.65
2023-02-17T04:35:30.749Z,15.15
2023-02-17T04:38:16.567Z,13.45
2023-02-17T04:41:02.378Z,14.20
2023-02-17T04:43:47.662Z,14.55
2023-02-17T04:46:33.076Z,14.48
2023-02-17T04:49:18.508Z,14.40
2023-02-17T04:52:04.432Z,16.35
2023-02-17T04:54:49.788Z,14.63
2023-02-17T04:57:35.516Z,14.80
2023-02-17T05:00:21.453Z,16.00
2023-02-17T05:03:07.314Z,12.48
2023-02-17T05:05:52.771Z,15.95
2023-02-17T05:08:38.262Z,14.38
2023-02-17T05:11:23.744Z,15.18
2023-02-17T05:14:09.164Z,16.92
2023-02-17T05:16:54.770Z,14.27
2023-02-17T05:19:40.110Z,15.73
2023-02-17T05:22:26.592Z,16.67
2023-02-17T05:25:12.307Z,16.70
2023-02-17T05:27:57.951Z,16.58
2023-02-17T05:30:43.508Z,14.98
2023-02-17T05:33:29.334Z,15.57
2023-02-17T05:36:15.247Z,15.88
2023-02-17T05:39:00.884Z,16.13
2023-02-17T05:41:46.103Z,16.88
2023-02-17T05:44:31.621Z,15.48
2023-02-17T05:47:16.979Z,16.92
2023-02-17T05:50:02.786Z,19.10
2023-02-17T05:52:48.129Z,17.20
2023-02-17T05:55:33.476Z,17.13
2023-02-17T05:58:19.139Z,16.98
2023-02-17T06:01:12.245Z,16.25
2023-02-17T06:03:57.769Z,17.17
2023-02-17T06:06:43.174Z,15.48
2023-02-17T06:09:28.617Z,16.48
2023-02-17T06:12:14.073Z,19.35
2023-02-17T06:14:59.643Z,18.23
2023-02-17T06:17:44.878Z,18.17
2023-02-17T06:20:30.634Z,18.70
2023-02-17T06:23:16.399Z,19.02
2023-02-17T06:26:02.015Z,19.35
2023-02-17T06:28:47.721Z,17.83
2023-02-17T06:31:33.837Z,19.38
2023-02-17T06:34:19.357Z,18.58
2023-02-17T06:37:04.863Z,18.67
2023-02-17T06:39:50.169Z,17.98
2023-02-17T06:42:35.834Z,17.90
2023-02-17T06:45:21.143Z,17.60
2023-02-17T06:48:06.571Z,18.40
2023-02-17T06:50:53.288Z,28.02
2023-02-17T06:53:39.745Z,21.95
2023-02-17T06:56:25.892Z,20.60
2023-02-17T06:59:11.457Z,19.10
2023-02-17T07:01:59.086Z,21.63
2023-02-17T07:04:47.850Z,16.05
2023-02-17T07:07:36.347Z,19.15
2023-02-17T07:10:24.176Z,17.10
2023-02-17T07:13:11.945Z,18.23
2023-02-17T07:16:03.126Z,17.92
2023-02-17T07:18:49.405Z,14.70
2023-02-17T07:21:36.358Z,15.20
2023-02-17T07:24:22.913Z,15.25
2023-02-17T07:27:10.862Z,16.27
2023-02-17T07:29:57.000Z,15.07
2023-02-17T07:32:42.438Z,14.57
2023-02-17T07:35:28.471Z,13.35
2023-02-17T07:38:14.129Z,15.10
2023-02-17T07:41:09.560Z,13.75
2023-02-17T07:43:56.933Z,13.48
2023-02-17T07:46:43.142Z,14.35
2023-02-17T07:49:29.284Z,14.05
2023-02-17T07:52:18.190Z,14.10
2023-02-17T07:55:04.223Z,14.63
2023-02-17T07:57:49.877Z,13.15
2023-02-17T08:00:35.437Z,13.80
2023-02-17T08:03:21.700Z,13.07
2023-02-17T08:06:12.950Z,13.45
2023-02-17T08:09:17.471Z,13.18
2023-02-17T08:12:21.368Z,12.75
2023-02-17T08:15:10.118Z,13.55
2023-02-17T08:17:55.866Z,13.85
2023-02-17T08:20:41.324Z,14.90
2023-02-17T08:23:27.336Z,13.93
2023-02-17T08:26:14.896Z,15.18
2023-02-17T08:29:01.160Z,14.85
2023-02-17T08:31:51.533Z,13.68
2023-02-17T08:34:38.238Z,12.30
2023-02-17T08:37:24.075Z,14.05
2023-02-17T08:40:10.198Z,15.35
2023-02-17T08:42:56.774Z,14.00
2023-02-17T08:45:42.971Z,13.23
2023-02-17T08:48:28.471Z,13.00
2023-02-17T08:51:23.457Z,13.93
2023-02-17T08:54:11.272Z,13.98
2023-02-17T08:56:58.610Z,13.27
2023-02-17T08:59:48.478Z,13.25
2023-02-17T09:02:35.974Z,13.38
2023-02-17T09:05:23.160Z,13.55
2023-02-17T09:08:10.978Z,14.98
2023-02-17T09:10:57.183Z,14.57
2023-02-17T09:13:46.770Z,15.25
2023-02-17T09:16:35.476Z,13.40
2023-02-17T09:19:24.871Z,11.65
2023-02-17T09:22:26.114Z,12.77
2023-02-17T09:25:16.181Z,12.80
2023-02-17T09:28:01.660Z,12.98
2023-02-17T09:30:48.445Z,17.27
2023-02-17T09:33:34.762Z,11.85
2023-02-17T09:36:23.080Z,12.18
2023-02-17T09:39:12.288Z,11.90
2023-02-17T09:41:59.016Z,13.27
2023-02-17T09:44:49.180Z,12.93
2023-02-17T09:47:58.054Z,12.38
2023-02-17T09:51:12.492Z,12.10
2023-02-17T09:54:13.698Z,12.55
2023-02-17T09:57:01.750Z,15.52
2023-02-17T09:59:55.667Z,13.85
2023-02-17T10:03:12.994Z,13.77
2023-02-17T10:06:28.584Z,12.50
2023-02-17T10:09:19.843Z,12.60
2023-02-17T10:12:10.107Z,13.23
2023-02-17T10:15:09.499Z,14.85
2023-02-17T10:18:05.680Z,15.40
2023-02-17T10:21:07.286Z,18.25
2023-02-17T10:23:52.862Z,15.13
2023-02-17T10:26:56.913Z,17.05
2023-02-17T10:30:14.404Z,15.05
2023-02-17T10:33:11.971Z,15.18
2023-02-17T10:36:19.991Z,12.93
2023-02-17T10:39:36.238Z,14.70
2023-02-17T10:42:37.918Z,14.27
2023-02-17T10:45:41.742Z,12.13
2023-02-17T10:48:35.833Z,12.43
2023-02-17T10:51:28.157Z,11.80
2023-02-17T10:54:42.416Z,11.05
2023-02-17T10:57:33.343Z,12.27
2023-02-17T11:00:19.634Z,12.68
2023-02-17T11:03:05.224Z,11.90
2023-02-17T11:05:57.039Z,11.50
2023-02-17T11:08:51.423Z,13.73
2023-02-17T11:11:37.084Z,12.18
2023-02-17T11:14:33.650Z,12.07
2023-02-17T11:17:28.170Z,11.40
2023-02-17T11:20:13.588Z,12.13
2023-02-17T11:23:16.460Z,12.02
2023-02-17T11:26:09.434Z,13.13
2023-02-17T11:28:55.308Z,12.38
2023-02-17T11:31:41.394Z,12.95
2023-02-17T11:34:30.330Z,12.23
2023-02-17T11:37:20.324Z,12.48
2023-02-17T11:40:26.444Z,11.70
2023-02-17T11:43:19.020Z,10.27
2023-02-17T11:46:13.926Z,11.13
2023-02-17T11:49:31.213Z,11.55
2023-02-17T11:52:35.960Z,11.52
2023-02-17T11:56:09.968Z,10.85
2023-02-17T11:59:43.951Z,11.98
2023-02-17T12:02:59.013Z,15.13
2023-02-17T12:06:09.079Z,11.75
2023-02-17T12:09:11.090Z,14.55
2023-02-17T12:12:15.232Z,11.80
2023-02-17T12:15:11.720Z,10.57
2023-02-17T12:18:10.147Z,11.15
2023-02-17T12:21:10.732Z,10.57
2023-02-17T12:24:07.881Z,11.32
2023-02-17T12:27:21.356Z,10.57
2023-02-17T12:30:14.653Z,10.63
2023-02-17T12:33:20.781Z,10.38
2023-02-17T12:36:13.182Z,9.63
2023-02-17T12:39:12.523Z,10.20
2023-02-17T12:42:11.561Z,11.90
2023-02-17T12:45:04.014Z,9.77
2023-02-17T12:47:55.518Z,9.10
2023-02-17T12:50:54.971Z,9.52
2023-02-17T12:53:43.505Z,9.45
2023-02-17T12:56:42.369Z,9.68
2023-02-17T12:59:34.327Z,9.68
2023-02-17T13:02:25.102Z,9.52
2023-02-17T13:05:26.470Z,9.18
2023-02-17T13:08:23.221Z,9.43
2023-02-17T13:11:13.608Z,9.68
2023-02-17T13:14:11.362Z,9.27
2023-02-17T13:16:57.309Z,9.63
2023-02-17T13:19:42.693Z,10.10
2023-02-17T13:22:28.238Z,9.60
2023-02-17T13:25:29.643Z,9.70
2023-02-17T13:28:34.373Z,9.85
2023-02-17T13:31:25.647Z,9.25
2023-02-17T13:34:11.117Z,9.40
2023-02-17T13:36:58.005Z,9.75
2023-02-17T13:39:44.041Z,9.10
2023-02-17T13:42:41.385Z,9.90
2023-02-17T13:45:29.746Z,10.18
2023-02-17T13:48:20.918Z,9.40
2023-02-17T13:51:09.949Z,9.82
2023-02-17T13:53:56.089Z,9.48
2023-02-17T13:56:42.675Z,10.10
2023-02-17T13:59:28.331Z,8.88
2023-02-17T14:02:35.371Z,9.20
2023-02-17T14:05:27.942Z,11.77
2023-02-17T14:08:27.433Z,9.73
2023-02-17T14:11:15.339Z,8.65
2023-02-17T14:14:08.207Z,26.48
2023-02-17T14:16:58.764Z,30.70
2023-02-17T14:19:49.304Z,12.15
2023-02-17T14:22:35.874Z,9.63
2023-02-17T14:25:29.541Z,9.65
2023-02-17T14:28:27.282Z,8.85
2023-02-17T14:31:20.248Z,10.95
2023-02-17T14:34:05.849Z,10.75
2023-02-17T14:36:51.380Z,12.88
2023-02-17T14:39:37.734Z,12.00
2023-02-17T14:42:23.181Z,10.63
2023-02-17T14:45:09.231Z,12.80
2023-02-17T14:47:54.682Z,15.05
2023-02-17T14:50:44.653Z,13.25
2023-02-17T14:53:36.483Z,11.90
2023-02-17T14:56:27.472Z,11.10
2023-02-17T14:59:12.892Z,11.48
2023-02-17T15:01:58.338Z,9.75
2023-02-17T15:04:44.081Z,11.68
2023-02-17T15:07:29.740Z,12.20
2023-02-17T15:10:20.723Z,11.35
2023-02-17T15:13:06.587Z,11.52
2023-02-17T15:15:52.534Z,10.95
2023-02-17T15:18:38.099Z,13.20
2023-02-17T15:21:31.105Z,12.18
2023-02-17T15:24:27.254Z,12.13
2023-02-17T15:27:17.368Z,12.35
2023-02-17T15:30:03.130Z,12.80
2023-02-17T15:32:48.990Z,13.70
2023-02-17T15:35:34.556Z,13.10
2023-02-17T15:38:20.436Z,13.57
2023-02-17T15:41:13.671Z,12.57
2023-02-17T15:44:01.330Z,12.98
2023-02-17T15:46:49.843Z,14.70
2023-02-17T15:49:35.554Z,16.67
2023-02-17T15:52:21.500Z,16.17
2023-02-17T15:55:07.642Z,15.80
2023-02-17T15:57:58.690Z,13.63
2023-02-17T16:00:50.564Z,12.48
2023-02-17T16:03:36.770Z,13.25
2023-02-17T16:06:22.518Z,12.90
2023-02-17T16:09:08.392Z,15.07
2023-02-17T16:11:55.987Z,13.60
2023-02-17T16:14:41.676Z,15.00
2023-02-17T16:17:28.193Z,13.70
2023-02-17T16:20:14.851Z,13.15
2023-02-17T16:23:01.159Z,13.15
2023-02-17T16:25:48.073Z,12.43
2023-02-17T16:28:33.924Z,12.15
2023-02-17T16:31:19.937Z,13.73
2023-02-17T16:34:05.237Z,16.08
2023-02-17T16:36:53.034Z,15.05
2023-02-17T16:39:39.994Z,15.23
2023-02-17T16:42:26.214Z,15.10
2023-02-17T16:45:25.655Z,14.90
2023-02-17T16:48:14.528Z,14.25
2023-02-17T16:51:00.394Z,11.68
2023-02-17T16:53:45.651Z,13.05
2023-02-17T16:56:37.638Z,12.68
2023-02-17T16:59:24.807Z,12.35
2023-02-17T17:02:11.588Z,11.20
2023-02-17T17:04:57.400Z,12.05
2023-02-17T17:07:42.849Z,11.70
2023-02-17T17:10:31.699Z,12.75
2023-02-17T17:13:18.044Z,12.75
2023-02-17T17:16:03.624Z,13.02
2023-02-17T17:18:49.537Z,13.63
2023-02-17T17:21:35.956Z,14.40
2023-02-17T17:24:21.905Z,12.80
2023-02-17T17:27:07.619Z,16.15
2023-02-17T17:29:52.962Z,16.02
2023-02-17T17:32:38.677Z,16.00
2023-02-17T17:35:24.777Z,16.55
2023-02-17T17:38:14.279Z,16.50
2023-02-17T17:41:13.130Z,18.40
2023-02-17T17:43:59.084Z,17.30
2023-02-17T17:46:45.008Z,16.55
2023-02-17T17:49:30.589Z,17.15
2023-02-17T17:52:15.836Z,16.42
2023-02-17T17:55:01.214Z,18.15
2023-02-17T17:57:48.515Z,17.83
2023-02-17T18:00:33.828Z,17.25
2023-02-17T18:03:19.409Z,17.50
2023-02-17T18:06:06.520Z,18.52
2023-02-17T18:08:54.836Z,18.92
2023-02-17T18:11:43.038Z,17.67
2023-02-17T18:14:29.298Z,18.45
2023-02-17T18:17:18.066Z,18.95
2023-02-17T18:20:05.213Z,17.52
2023-02-17T18:22:51.185Z,17.65
2023-02-17T18:25:36.526Z,17.95
2023-02-17T18:28:22.039Z,17.48
2023-02-17T18:31:09.914Z,17.50
2023-02-17T18:33:55.986Z,17.08
2023-02-17T18:36:41.834Z,16.75
2023-02-17T18:39:27.416Z,16.10
2023-02-17T18:42:13.057Z,17.05
2023-02-17T18:44:58.428Z,16.20
2023-02-17T18:47:44.372Z,17.55
2023-02-17T18:50:33.073Z,16.15
2023-02-17T18:53:18.921Z,14.48
2023-02-17T18:56:11.073Z,15.32
2023-02-17T18:58:57.305Z,15.48
2023-02-17T19:01:43.512Z,14.27
2023-02-17T19:04:29.717Z,15.90
2023-02-17T19:07:15.270Z,15.05
2023-02-17T19:10:01.168Z,14.88
2023-02-17T19:12:47.354Z,13.30
2023-02-17T19:15:33.061Z,12.85
2023-02-17T19:18:18.510Z,12.15
2023-02-17T19:21:03.860Z,12.60
2023-02-17T19:23:49.858Z,13.05
2023-02-17T19:26:38.446Z,12.07
2023-02-17T19:29:24.713Z,11.48
2023-02-17T19:32:17.486Z,11.88
2023-02-17T19:35:05.324Z,10.52
2023-02-17T19:37:51.259Z,11.98
2023-02-17T19:40:37.382Z,12.15
2023-02-17T19:43:22.763Z,11.35
2023-02-17T19:46:21.274Z,10.80
2023-02-17T19:49:07.800Z,12.15
2023-02-17T19:51:56.272Z,11.18
2023-02-17T19:54:43.138Z,11.50
2023-02-17T19:57:29.993Z,10.45
2023-02-17T20:00:16.900Z,11.45
2023-02-17T20:03:03.483Z,11.93
2023-02-17T20:05:48.720Z,11.50
2023-02-17T20:08:35.565Z,11.45
2023-02-17T20:11:21.392Z,11.57
2023-02-17T20:14:07.518Z,11.73
2023-02-17T20:16:53.450Z,10.35
2023-02-17T20:19:39.645Z,11.43
2023-02-17T20:22:25.745Z,11.30
2023-02-17T20:25:11.285Z,11.05
2023-02-17T20:28:02.322Z,12.73
2023-02-17T20:30:55.384Z,13.13
2023-02-17T20:33:41.275Z,14.48
2023-02-17T20:36:26.829Z,13.32
2023-02-17T20:39:12.279Z,13.57
2023-02-17T20:41:59.425Z,14.57
2023-02-17T20:44:45.928Z,13.38
2023-02-17T20:47:31.496Z,13.00
2023-02-17T20:50:19.706Z,12.07
2023-02-17T20:53:05.364Z,12.73
2023-02-17T20:55:51.466Z,13.23
2023-02-17T20:58:36.977Z,13.65
2023-02-17T21:01:22.336Z,11.95
2023-02-17T21:04:08.282Z,11.55
2023-02-17T21:06:54.110Z,11.50
2023-02-17T21:09:39.571Z,10.93
2023-02-17T21:12:31.540Z,11.15
2023-02-17T21:15:33.774Z,10.68
2023-02-17T21:18:24.464Z,10.60
2023-02-17T21:21:11.573Z,9.70
2023-02-17T21:23:58.081Z,9.35
2023-02-17T21:26:43.816Z,9.25
2023-02-17T21:29:29.648Z,9.10
2023-02-17T21:32:15.184Z,8.27
2023-02-17T21:35:01.019Z,6.63
2023-02-17T21:37:46.688Z,5.43
2023-02-17T21:40:32.175Z,5.63
2023-02-17T21:43:37.691Z,4.50
2023-02-17T21:46:24.345Z,5.03
2023-02-17T21:49:10.754Z,5.50
2023-02-17T21:51:56.287Z,4.95
2023-02-17T21:54:41.564Z,4.60
2023-02-17T21:57:26.964Z,3.70
2023-02-17T22:00:13.075Z,4.13
2023-02-17T22:02:58.438Z,4.65
2023-02-17T22:05:43.960Z,4.80
2023-02-17T22:08:29.376Z,4.32
2023-02-17T22:11:16.638Z,3.88
2023-02-17T22:14:05.236Z,4.05
2023-02-17T22:16:50.872Z,4.50
2023-02-17T22:19:36.271Z,4.20
2023-02-17T22:22:21.711Z,4.60
2023-02-17T22:25:08.403Z,4.88
2023-02-17T22:27:53.996Z,4.88
2023-02-17T22:30:39.457Z,4.82
2023-02-17T22:33:24.804Z,4.30
2023-02-17T22:36:16.071Z,4.30
2023-02-17T22:39:02.740Z,4.80
2023-02-17T22:41:48.218Z,3.88
2023-02-17T22:44:33.617Z,3.20
2023-02-17T22:47:18.903Z,3.47
2023-02-17T22:50:04.930Z,3.72
2023-02-17T22:52:50.222Z,2.90
2023-02-17T22:55:35.529Z,2.47
2023-02-17T22:58:22.340Z,2.40
2023-02-17T23:01:12.438Z,2.35
2023-02-17T23:03:58.635Z,1.50
2023-02-17T23:06:45.102Z,2.30
2023-02-17T23:09:30.553Z,1.80
2023-02-17T23:12:16.129Z,1.83
2023-02-17T23:15:01.725Z,1.80
2023-02-17T23:17:59.388Z,1.70
2023-02-17T23:20:48.482Z,2.08
2023-02-17T23:23:34.362Z,1.75
2023-02-17T23:26:19.606Z,1.70
2023-02-17T23:29:05.013Z,1.73
2023-02-17T23:31:50.533Z,1.60
2023-02-17T23:34:35.791Z,1.40
2023-02-17T23:37:21.503Z,1.30
2023-02-17T23:40:07.640Z,1.50
2023-02-17T23:42:53.160Z,1.80
2023-02-17T23:45:39.270Z,2.10
2023-02-17T23:48:24.607Z,1.63
2023-02-17T23:51:17.584Z,1.58
2023-02-17T23:54:03.368Z,1.70
2023-02-17T23:56:48.723Z,1.60
2023-02-17T23:59:34.210Z,1.85
